createdAt,value
2022-12-06T00:00:11.067Z,84.42
2022-12-06T00:01:11.069Z,84.45
2022-12-06T00:02:11.149Z,84.37
2022-12-06T00:03:11.103Z,84.36
2022-12-06T00:04:13.063Z,84.42
2022-12-06T00:05:11.061Z,84.30
2022-12-06T00:06:16.061Z,84.35
2022-12-06T00:07:11.065Z,84.36
2022-12-06T00:08:11.121Z,84.42
2022-12-06T00:09:15.059Z,84.47
2022-12-06T00:10:11.064Z,84.47
2022-12-06T00:11:15.070Z,84.47
2022-12-06T00:12:11.063Z,84.34
2022-12-06T00:13:11.058Z,84.47
2022-12-06T00:14:11.065Z,84.61
2022-12-06T00:15:11.062Z,84.58
2022-12-06T00:16:12.114Z,84.49
2022-12-06T00:17:11.065Z,84.39
2022-12-06T00:18:11.064Z,84.51
2022-12-06T00:19:14.065Z,84.52
2022-12-06T00:20:11.069Z,84.45
2022-12-06T00:21:17.067Z,84.53
2022-12-06T00:22:11.062Z,84.59
2022-12-06T00:23:11.063Z,84.58
2022-12-06T00:24:13.068Z,84.54
2022-12-06T00:25:11.061Z,84.58
2022-12-06T00:26:11.061Z,84.61
2022-12-06T00:27:11.067Z,84.70
2022-12-06T00:28:11.064Z,84.69
2022-12-06T00:29:13.063Z,84.77
2022-12-06T00:30:11.065Z,84.90
2022-12-06T00:31:12.072Z,85.07
2022-12-06T00:32:14.794Z,84.93
2022-12-06T00:33:13.061Z,84.93
2022-12-06T00:34:11.065Z,84.89
2022-12-06T00:35:11.064Z,85.03
2022-12-06T00:36:15.071Z,85.06
2022-12-06T00:37:11.062Z,85.13
2022-12-06T00:38:11.064Z,85.27
2022-12-06T00:39:11.071Z,85.28
2022-12-06T00:40:11.062Z,85.31
2022-12-06T00:41:12.062Z,85.28
2022-12-06T00:42:11.065Z,85.35
2022-12-06T00:43:11.061Z,85.24
2022-12-06T00:44:11.071Z,85.58
2022-12-06T00:45:11.065Z,85.49
2022-12-06T00:46:13.189Z,85.39
2022-12-06T00:47:11.065Z,85.38
2022-12-06T00:48:11.065Z,85.25
2022-12-06T00:49:11.062Z,85.27
2022-12-06T00:50:11.065Z,85.35
2022-12-06T00:51:11.065Z,85.22
2022-12-06T00:52:11.066Z,85.24
2022-12-06T00:53:11.064Z,85.19
2022-12-06T00:54:13.065Z,85.24
2022-12-06T00:55:11.064Z,85.44
2022-12-06T00:56:11.064Z,85.62
2022-12-06T00:57:11.067Z,85.59
2022-12-06T00:58:11.065Z,85.50
2022-12-06T00:59:11.064Z,85.89
2022-12-06T01:00:11.065Z,86.16
2022-12-06T01:01:15.098Z,86.05
2022-12-06T01:02:11.067Z,86.03
2022-12-06T01:04:11.066Z,86.02
2022-12-06T01:05:11.077Z,86.16
2022-12-06T01:06:13.066Z,86.13
2022-12-06T01:07:11.069Z,86.20
2022-12-06T01:08:11.216Z,86.29
2022-12-06T01:09:11.067Z,86.19
2022-12-06T01:10:11.065Z,86.25
2022-12-06T01:11:11.065Z,86.45
2022-12-06T01:12:11.067Z,86.57
2022-12-06T01:13:11.064Z,86.56
2022-12-06T01:14:11.066Z,86.67
2022-12-06T01:15:11.071Z,86.76
2022-12-06T01:16:15.179Z,86.83
2022-12-06T01:17:11.141Z,86.87
2022-12-06T01:18:11.074Z,86.91
2022-12-06T01:19:11.064Z,86.80
2022-12-06T01:20:11.070Z,86.66
2022-12-06T01:21:12.076Z,86.72
2022-12-06T01:22:11.065Z,86.76
2022-12-06T01:23:11.066Z,86.73
2022-12-06T01:24:11.077Z,86.82
2022-12-06T01:25:11.069Z,86.90
2022-12-06T01:26:16.065Z,86.84
2022-12-06T01:27:11.071Z,86.78
2022-12-06T01:28:11.069Z,86.76
2022-12-06T01:29:11.063Z,86.69
2022-12-06T01:30:11.069Z,86.69
2022-12-06T01:31:11.135Z,86.59
2022-12-06T01:32:11.067Z,86.80
2022-12-06T01:33:11.068Z,86.79
2022-12-06T01:34:15.074Z,87.00
2022-12-06T01:35:11.065Z,86.93
2022-12-06T01:36:15.066Z,86.94
2022-12-06T01:37:11.075Z,86.97
2022-12-06T01:38:11.067Z,86.82
2022-12-06T01:39:14.071Z,86.82
2022-12-06T01:40:11.070Z,86.90
2022-12-06T01:41:11.068Z,86.80
2022-12-06T01:42:11.069Z,86.83
2022-12-06T01:43:19.072Z,86.92
2022-12-06T01:44:21.362Z,86.81
2022-12-06T01:45:11.072Z,86.82
2022-12-06T01:46:19.214Z,86.80
2022-12-06T01:47:23.071Z,86.77
2022-12-06T01:48:11.071Z,86.75
2022-12-06T01:49:18.067Z,86.73
2022-12-06T01:50:18.064Z,86.86
2022-12-06T01:51:11.068Z,86.79
2022-12-06T01:52:11.076Z,86.70
2022-12-06T01:53:11.070Z,86.65
2022-12-06T01:54:11.072Z,86.64
2022-12-06T01:55:11.077Z,86.62
2022-12-06T01:56:11.066Z,86.55
2022-12-06T01:57:13.068Z,86.59
2022-12-06T01:58:15.070Z,86.50
2022-12-06T01:59:11.067Z,86.43
2022-12-06T02:00:11.070Z,86.42
2022-12-06T02:01:11.108Z,86.40
2022-12-06T02:02:11.138Z,86.24
2022-12-06T02:03:16.069Z,86.26
2022-12-06T02:04:11.078Z,86.12
2022-12-06T02:05:11.068Z,86.20
2022-12-06T02:06:11.068Z,86.11
2022-12-06T02:07:11.072Z,85.86
2022-12-06T02:08:11.194Z,85.74
2022-12-06T02:09:12.070Z,85.80
2022-12-06T02:10:11.070Z,85.71
2022-12-06T02:11:11.069Z,85.65
2022-12-06T02:12:14.055Z,85.80
2022-12-06T02:13:11.055Z,85.77
2022-12-06T02:14:13.056Z,85.47
2022-12-06T02:15:11.054Z,85.52
2022-12-06T02:16:21.115Z,85.46
2022-12-06T02:17:19.158Z,85.40
2022-12-06T02:18:19.057Z,85.36
2022-12-06T02:19:21.054Z,85.22
2022-12-06T02:20:21.054Z,85.27
2022-12-06T02:21:17.055Z,85.12
2022-12-06T02:22:21.063Z,85.06
2022-12-06T02:23:19.062Z,85.05
2022-12-06T02:24:19.056Z,85.10
2022-12-06T02:25:19.053Z,85.06
2022-12-06T02:26:17.060Z,85.11
2022-12-06T02:27:19.065Z,85.12
2022-12-06T02:28:19.057Z,84.95
2022-12-06T02:29:21.061Z,84.94
2022-12-06T02:30:17.069Z,84.96
2022-12-06T02:31:21.116Z,84.91
2022-12-06T02:32:21.066Z,84.81
2022-12-06T02:33:17.057Z,84.64
2022-12-06T02:34:19.055Z,84.60
2022-12-06T02:35:21.060Z,84.70
2022-12-06T02:36:19.057Z,84.67
2022-12-06T02:37:21.065Z,84.78
2022-12-06T02:38:19.058Z,84.71
2022-12-06T02:39:19.056Z,84.63
2022-12-06T02:40:13.056Z,84.62
2022-12-06T02:41:15.086Z,84.65
2022-12-06T02:42:19.058Z,84.68
2022-12-06T02:43:19.058Z,84.67
2022-12-06T02:44:18.054Z,84.70
2022-12-06T02:45:16.058Z,84.54
2022-12-06T02:46:11.158Z,84.56
2022-12-06T02:47:11.059Z,84.37
2022-12-06T02:48:11.057Z,84.32
2022-12-06T02:49:11.065Z,84.16
2022-12-06T02:50:14.055Z,84.41
2022-12-06T02:51:13.060Z,84.16
2022-12-06T02:52:11.072Z,84.17
2022-12-06T02:53:12.056Z,84.18
2022-12-06T02:54:11.061Z,83.88
2022-12-06T02:55:11.064Z,84.07
2022-12-06T02:56:11.059Z,84.06
2022-12-06T02:57:11.062Z,84.02
2022-12-06T02:58:11.065Z,83.72
2022-12-06T02:59:11.056Z,83.61
2022-12-06T03:00:19.060Z,83.68
2022-12-06T03:01:17.117Z,83.74
2022-12-06T03:02:12.148Z,83.53
2022-12-06T03:03:19.057Z,83.62
2022-12-06T03:04:21.058Z,83.47
2022-12-06T03:05:20.062Z,83.23
2022-12-06T03:06:19.063Z,83.06
2022-12-06T03:07:19.059Z,83.11
2022-12-06T03:08:19.110Z,82.75
2022-12-06T03:09:23.059Z,82.61
2022-12-06T03:10:19.070Z,82.83
2022-12-06T03:11:11.061Z,82.49
2022-12-06T03:12:17.059Z,82.70
2022-12-06T03:13:21.060Z,82.53
2022-12-06T03:14:15.119Z,82.43
2022-12-06T03:15:16.068Z,82.21
2022-12-06T03:16:19.094Z,82.20
2022-12-06T03:17:21.060Z,81.94
2022-12-06T03:18:19.070Z,81.78
2022-12-06T03:19:18.069Z,81.65
2022-12-06T03:20:13.059Z,81.56
2022-12-06T03:21:13.072Z,81.30
2022-12-06T03:22:16.072Z,81.08
2022-12-06T03:23:14.069Z,81.32
2022-12-06T03:24:13.057Z,81.21
2022-12-06T03:25:11.061Z,81.32
2022-12-06T03:26:13.061Z,81.08
2022-12-06T03:27:15.056Z,81.20
2022-12-06T03:28:13.067Z,81.07
2022-12-06T03:29:11.061Z,80.98
2022-12-06T03:30:12.059Z,80.87
2022-12-06T03:31:14.243Z,80.89
2022-12-06T03:32:12.061Z,80.69
2022-12-06T03:33:11.058Z,80.53
2022-12-06T03:34:17.062Z,80.47
2022-12-06T03:35:11.068Z,80.56
2022-12-06T03:36:12.060Z,80.45
2022-12-06T03:37:12.061Z,79.87
2022-12-06T03:38:14.062Z,80.19
2022-12-06T03:39:11.059Z,79.90
2022-12-06T03:40:19.064Z,80.01
2022-12-06T03:41:11.063Z,79.69
2022-12-06T03:42:11.061Z,79.95
2022-12-06T03:43:11.060Z,79.92
2022-12-06T03:44:11.063Z,79.73
2022-12-06T03:45:12.252Z,79.98
2022-12-06T03:46:16.163Z,79.85
2022-12-06T03:47:15.981Z,79.65
2022-12-06T03:48:18.064Z,79.56
2022-12-06T03:49:15.059Z,79.57
2022-12-06T03:50:16.066Z,79.69
2022-12-06T03:51:15.072Z,79.55
2022-12-06T03:52:11.066Z,79.50
2022-12-06T03:53:11.069Z,79.34
2022-12-06T03:54:11.065Z,79.37
2022-12-06T03:55:11.068Z,79.53
2022-12-06T03:56:11.069Z,79.52
2022-12-06T03:57:11.061Z,79.33
2022-12-06T03:58:11.065Z,79.41
2022-12-06T03:59:11.063Z,79.50
2022-12-06T04:00:11.062Z,79.43
2022-12-06T04:01:11.065Z,79.27
2022-12-06T04:02:11.163Z,79.34
2022-12-06T04:03:11.063Z,79.10
2022-12-06T04:04:11.194Z,79.06
2022-12-06T04:05:11.061Z,79.22
2022-12-06T04:06:11.062Z,79.24
2022-12-06T04:07:11.067Z,79.14
2022-12-06T04:08:11.154Z,78.99
2022-12-06T04:09:15.073Z,79.16
2022-12-06T04:10:11.070Z,79.32
2022-12-06T04:11:11.060Z,79.27
2022-12-06T04:12:15.062Z,79.28
2022-12-06T04:13:15.269Z,79.12
2022-12-06T04:14:14.004Z,79.10
2022-12-06T04:15:11.063Z,79.12
2022-12-06T04:16:15.113Z,79.18
2022-12-06T04:17:15.074Z,79.32
2022-12-06T04:18:15.063Z,79.06
2022-12-06T04:19:11.060Z,79.07
2022-12-06T04:20:11.062Z,79.05
2022-12-06T04:21:15.067Z,79.02
2022-12-06T04:22:15.060Z,79.07
2022-12-06T04:23:11.063Z,79.12
2022-12-06T04:24:11.065Z,79.21
2022-12-06T04:25:11.066Z,79.00
2022-12-06T04:26:11.063Z,79.03
2022-12-06T04:27:15.067Z,78.97
2022-12-06T04:28:15.065Z,79.21
2022-12-06T04:29:15.065Z,79.13
2022-12-06T04:30:15.062Z,79.01
2022-12-06T04:31:20.237Z,79.29
2022-12-06T04:32:17.069Z,79.31
2022-12-06T04:33:15.066Z,79.26
2022-12-06T04:34:15.060Z,79.29
2022-12-06T04:35:15.076Z,79.34
2022-12-06T04:36:15.071Z,79.34
2022-12-06T04:37:15.066Z,79.38
2022-12-06T04:38:15.061Z,79.32
2022-12-06T04:39:12.430Z,79.44
2022-12-06T04:40:11.064Z,79.40
2022-12-06T04:41:11.066Z,79.47
2022-12-06T04:42:15.064Z,79.35
2022-12-06T04:43:15.065Z,79.42
2022-12-06T04:44:11.072Z,79.39
2022-12-06T04:45:11.066Z,79.35
2022-12-06T04:46:11.104Z,79.31
2022-12-06T04:47:11.068Z,79.26
2022-12-06T04:48:11.065Z,79.03
2022-12-06T04:49:11.061Z,79.13
2022-12-06T04:50:11.069Z,79.29
2022-12-06T04:51:11.069Z,79.15
2022-12-06T04:52:11.061Z,79.06
2022-12-06T04:53:11.073Z,79.26
2022-12-06T04:54:11.065Z,79.16
2022-12-06T04:55:11.061Z,79.27
2022-12-06T04:56:11.068Z,79.07
2022-12-06T04:57:16.069Z,79.01
2022-12-06T04:58:11.065Z,79.19
2022-12-06T04:59:11.068Z,79.01
2022-12-06T05:00:11.067Z,79.21
2022-12-06T05:01:11.110Z,79.12
2022-12-06T05:02:12.065Z,79.23
2022-12-06T05:03:14.070Z,79.26
2022-12-06T05:04:11.121Z,79.29
2022-12-06T05:05:11.070Z,79.22
2022-12-06T05:06:11.067Z,79.27
2022-12-06T05:07:11.066Z,79.37
2022-12-06T05:08:11.113Z,79.43
2022-12-06T05:09:11.068Z,79.51
2022-12-06T05:10:11.065Z,79.57
2022-12-06T05:11:11.066Z,79.56
2022-12-06T05:12:11.059Z,79.61
2022-12-06T05:13:11.054Z,79.56
2022-12-06T05:14:11.059Z,79.52
2022-12-06T05:15:14.587Z,79.68
2022-12-06T05:16:11.130Z,79.75
2022-12-06T05:17:11.059Z,79.83
2022-12-06T05:18:11.059Z,79.84
2022-12-06T05:19:11.054Z,79.84
2022-12-06T05:20:11.059Z,79.83
2022-12-06T05:21:13.066Z,79.94
2022-12-06T05:22:11.056Z,79.79
2022-12-06T05:23:11.061Z,79.92
2022-12-06T05:24:11.066Z,79.98
2022-12-06T05:25:11.058Z,79.85
2022-12-06T05:26:13.060Z,79.93
2022-12-06T05:27:11.065Z,80.07
2022-12-06T05:28:11.058Z,80.07
2022-12-06T05:29:11.053Z,80.14
2022-12-06T05:30:11.065Z,80.23
2022-12-06T05:31:11.196Z,80.15
2022-12-06T05:32:11.054Z,80.27
2022-12-06T05:33:11.059Z,80.30
2022-12-06T05:34:11.057Z,80.41
2022-12-06T05:35:11.055Z,80.45
2022-12-06T05:36:19.067Z,80.39
2022-12-06T05:37:11.060Z,80.47
2022-12-06T05:38:11.057Z,80.50
2022-12-06T05:39:11.057Z,80.41
2022-12-06T05:40:11.059Z,80.52
2022-12-06T05:41:11.058Z,80.46
2022-12-06T05:42:13.409Z,80.52
2022-12-06T05:43:11.061Z,80.58
2022-12-06T05:44:12.055Z,80.60
2022-12-06T05:45:11.057Z,80.64
2022-12-06T05:46:11.200Z,80.65
2022-12-06T05:47:11.056Z,80.59
2022-12-06T05:48:11.062Z,80.67
2022-12-06T05:49:11.067Z,80.65
2022-12-06T05:50:11.062Z,80.63
2022-12-06T05:51:11.060Z,80.79
2022-12-06T05:52:11.067Z,80.69
2022-12-06T05:53:11.097Z,80.78
2022-12-06T05:54:11.064Z,80.75
2022-12-06T05:55:11.066Z,80.61
2022-12-06T05:56:11.063Z,80.72
2022-12-06T05:57:11.056Z,80.80
2022-12-06T05:58:11.060Z,80.85
2022-12-06T05:59:11.058Z,80.67
2022-12-06T06:00:11.055Z,80.77
2022-12-06T06:01:11.062Z,80.86
2022-12-06T06:02:11.175Z,80.82
2022-12-06T06:03:11.246Z,80.99
2022-12-06T06:04:11.064Z,81.01
2022-12-06T06:05:11.059Z,80.99
2022-12-06T06:06:11.055Z,80.92
2022-12-06T06:07:11.062Z,80.90
2022-12-06T06:08:11.130Z,81.01
2022-12-06T06:09:11.060Z,80.95
2022-12-06T06:10:11.059Z,80.97
2022-12-06T06:11:11.060Z,80.99
2022-12-06T06:12:12.642Z,80.88
2022-12-06T06:13:11.059Z,80.95
2022-12-06T06:14:11.061Z,80.89
2022-12-06T06:15:11.057Z,80.98
2022-12-06T06:16:11.076Z,81.03
2022-12-06T06:17:11.061Z,81.02
2022-12-06T06:18:11.057Z,81.12
2022-12-06T06:19:11.062Z,81.04
2022-12-06T06:20:11.063Z,81.08
2022-12-06T06:21:11.058Z,81.07
2022-12-06T06:22:11.059Z,81.15
2022-12-06T06:23:11.062Z,81.03
2022-12-06T06:24:11.059Z,81.01
2022-12-06T06:25:11.059Z,80.91
2022-12-06T06:26:11.060Z,81.01
2022-12-06T06:27:11.059Z,81.00
2022-12-06T06:28:11.063Z,80.81
2022-12-06T06:29:11.062Z,80.91
2022-12-06T06:30:11.057Z,80.90
2022-12-06T06:31:11.060Z,80.93
2022-12-06T06:32:11.128Z,80.99
2022-12-06T06:33:11.062Z,80.94
2022-12-06T06:34:11.060Z,80.92
2022-12-06T06:35:11.063Z,80.79
2022-12-06T06:36:11.057Z,80.91
2022-12-06T06:37:11.061Z,80.92
2022-12-06T06:38:11.070Z,80.96
2022-12-06T06:39:11.059Z,80.95
2022-12-06T06:40:11.064Z,80.96
2022-12-06T06:41:11.069Z,80.89
2022-12-06T06:42:11.058Z,80.80
2022-12-06T06:43:15.063Z,80.91
2022-12-06T06:44:11.065Z,80.94
2022-12-06T06:45:11.063Z,80.92
2022-12-06T06:46:12.119Z,80.95
2022-12-06T06:47:11.069Z,80.91
2022-12-06T06:48:11.062Z,81.15
2022-12-06T06:49:11.064Z,81.17
2022-12-06T06:50:11.068Z,81.12
2022-12-06T06:51:13.064Z,81.03
2022-12-06T06:52:11.065Z,81.13
2022-12-06T06:53:11.069Z,81.18
2022-12-06T06:54:11.074Z,81.14
2022-12-06T06:55:11.065Z,81.21
2022-12-06T06:56:11.072Z,81.06
2022-12-06T06:57:17.133Z,81.21
2022-12-06T06:58:13.090Z,81.30
2022-12-06T06:59:11.070Z,81.22
2022-12-06T07:00:11.060Z,81.16
2022-12-06T07:01:15.108Z,81.15
2022-12-06T07:02:13.157Z,81.24
2022-12-06T07:03:15.063Z,81.13
2022-12-06T07:04:11.059Z,81.22
2022-12-06T07:05:11.068Z,81.20
2022-12-06T07:06:11.059Z,81.25
2022-12-06T07:07:11.946Z,81.22
2022-12-06T07:08:11.156Z,81.48
2022-12-06T07:09:11.063Z,81.36
2022-12-06T07:10:11.065Z,81.27
2022-12-06T07:11:11.071Z,81.29
2022-12-06T07:12:11.059Z,81.37
2022-12-06T07:13:11.064Z,81.29
2022-12-06T07:14:11.071Z,81.24
2022-12-06T07:15:11.064Z,81.28
2022-12-06T07:16:15.108Z,81.58
2022-12-06T07:17:11.165Z,81.46
2022-12-06T07:18:11.062Z,81.42
2022-12-06T07:19:11.065Z,81.43
2022-12-06T07:20:11.071Z,81.37
2022-12-06T07:21:13.061Z,81.51
2022-12-06T07:22:11.065Z,81.59
2022-12-06T07:23:11.072Z,81.63
2022-12-06T07:24:11.062Z,81.49
2022-12-06T07:25:11.063Z,81.52
2022-12-06T07:26:12.068Z,81.51
2022-12-06T07:27:11.059Z,81.47
2022-12-06T07:28:11.065Z,81.38
2022-12-06T07:29:11.064Z,81.43
2022-12-06T07:30:15.799Z,81.36
2022-12-06T07:31:19.196Z,81.29
2022-12-06T07:32:11.070Z,81.07
2022-12-06T07:33:11.062Z,81.23
2022-12-06T07:34:11.063Z,81.17
2022-12-06T07:35:11.067Z,81.18
2022-12-06T07:36:12.806Z,81.10
2022-12-06T07:37:12.066Z,81.05
2022-12-06T07:38:11.066Z,81.04
2022-12-06T07:39:14.766Z,80.96
2022-12-06T07:40:11.063Z,80.98
2022-12-06T07:41:15.073Z,80.94
2022-12-06T07:42:15.064Z,80.78
2022-12-06T07:43:15.063Z,80.82
2022-12-06T07:44:15.065Z,80.83
2022-12-06T07:45:12.072Z,80.78
2022-12-06T07:46:13.136Z,80.92
2022-12-06T07:47:11.063Z,80.91
2022-12-06T07:48:11.064Z,80.87
2022-12-06T07:49:11.064Z,80.92
2022-12-06T07:50:17.628Z,80.99
2022-12-06T07:51:13.051Z,80.97
2022-12-06T07:52:11.065Z,80.83
2022-12-06T07:53:11.062Z,80.71
2022-12-06T07:54:11.064Z,80.75
2022-12-06T07:55:11.065Z,80.56
2022-12-06T07:56:11.062Z,80.59
2022-12-06T07:57:11.064Z,80.62
2022-12-06T07:58:11.069Z,80.50
2022-12-06T07:59:11.061Z,80.58
2022-12-06T08:00:11.064Z,80.73
2022-12-06T08:01:11.111Z,80.70
2022-12-06T08:02:18.064Z,80.60
2022-12-06T08:03:11.067Z,80.51
2022-12-06T08:04:11.175Z,80.58
2022-12-06T08:05:11.064Z,80.77
2022-12-06T08:06:11.062Z,80.57
2022-12-06T08:07:11.073Z,80.64
2022-12-06T08:08:11.124Z,80.71
2022-12-06T08:09:11.068Z,80.63
2022-12-06T08:10:11.076Z,80.73
2022-12-06T08:11:11.068Z,80.63
2022-12-06T08:12:11.065Z,80.57
2022-12-06T08:13:11.070Z,80.68
2022-12-06T08:14:11.061Z,80.67
2022-12-06T08:15:15.064Z,80.63
2022-12-06T08:16:11.141Z,80.60
2022-12-06T08:17:11.063Z,80.63
2022-12-06T08:18:11.058Z,80.62
2022-12-06T08:19:11.063Z,80.62
2022-12-06T08:20:11.062Z,80.49
2022-12-06T08:21:11.059Z,80.33
2022-12-06T08:22:11.061Z,80.44
2022-12-06T08:23:11.062Z,80.42
2022-12-06T08:24:11.060Z,80.39
2022-12-06T08:25:11.061Z,80.36
2022-12-06T08:26:11.063Z,80.26
2022-12-06T08:27:11.062Z,80.42
2022-12-06T08:28:11.063Z,80.30
2022-12-06T08:29:11.062Z,80.50
2022-12-06T08:30:11.060Z,80.32
2022-12-06T08:31:14.217Z,80.35
2022-12-06T08:32:11.062Z,80.29
2022-12-06T08:33:11.063Z,80.31
2022-12-06T08:34:11.073Z,80.21
2022-12-06T08:35:11.063Z,80.38
2022-12-06T08:36:12.060Z,80.34
2022-12-06T08:37:11.066Z,80.25
2022-12-06T08:38:11.063Z,80.21
2022-12-06T08:39:11.065Z,80.14
2022-12-06T08:40:11.063Z,80.11
2022-12-06T08:41:11.064Z,80.13
2022-12-06T08:42:11.064Z,80.17
2022-12-06T08:43:11.063Z,80.06
2022-12-06T08:44:13.067Z,80.03
2022-12-06T08:45:11.062Z,79.89
2022-12-06T08:46:11.091Z,79.86
2022-12-06T08:47:12.067Z,79.86
2022-12-06T08:48:11.062Z,79.84
2022-12-06T08:49:11.064Z,79.69
2022-12-06T08:50:11.066Z,79.72
2022-12-06T08:51:11.062Z,79.89
2022-12-06T08:52:11.082Z,79.90
2022-12-06T08:53:11.085Z,79.90
2022-12-06T08:54:12.062Z,79.80
2022-12-06T08:55:11.066Z,79.67
2022-12-06T08:56:11.119Z,79.48
2022-12-06T08:57:11.062Z,79.40
2022-12-06T08:58:11.068Z,79.47
2022-12-06T08:59:11.072Z,79.27
2022-12-06T09:00:11.063Z,79.13
2022-12-06T09:01:13.114Z,79.29
2022-12-06T09:02:12.170Z,79.26
2022-12-06T09:03:11.073Z,79.10
2022-12-06T09:04:11.167Z,79.22
2022-12-06T09:05:11.071Z,79.09
2022-12-06T09:06:11.062Z,79.04
2022-12-06T09:07:11.948Z,79.17
2022-12-06T09:08:11.093Z,79.21
2022-12-06T09:09:11.068Z,79.29
2022-12-06T09:10:11.063Z,79.14
2022-12-06T09:11:11.066Z,79.36
2022-12-06T09:12:11.066Z,79.12
2022-12-06T09:13:11.067Z,79.08
2022-12-06T09:14:16.348Z,79.07
2022-12-06T09:15:13.099Z,79.01
2022-12-06T09:16:13.150Z,78.99
2022-12-06T09:17:11.064Z,78.89
2022-12-06T09:18:11.066Z,79.40
2022-12-06T09:19:13.062Z,79.00
2022-12-06T09:20:11.594Z,78.74
2022-12-06T09:21:11.072Z,78.70
2022-12-06T09:22:11.063Z,78.79
2022-12-06T09:23:11.068Z,78.83
2022-12-06T09:24:13.072Z,78.66
2022-12-06T09:25:11.065Z,78.47
2022-12-06T09:26:11.068Z,78.35
2022-12-06T09:27:11.072Z,78.41
2022-12-06T09:28:11.062Z,78.39
2022-12-06T09:29:11.069Z,78.24
2022-12-06T09:30:11.073Z,78.19
2022-12-06T09:31:11.183Z,78.07
2022-12-06T09:32:11.065Z,77.99
2022-12-06T09:33:11.076Z,77.89
2022-12-06T09:34:11.064Z,77.89
2022-12-06T09:35:15.332Z,77.97
2022-12-06T09:36:17.074Z,77.87
2022-12-06T09:37:11.066Z,77.96
2022-12-06T09:38:11.083Z,77.91
2022-12-06T09:39:18.075Z,77.70
2022-12-06T09:40:21.067Z,77.82
2022-12-06T09:41:19.065Z,77.75
2022-12-06T09:42:19.064Z,77.84
2022-12-06T09:43:19.066Z,77.91
2022-12-06T09:44:19.078Z,77.86
2022-12-06T09:45:23.066Z,78.10
2022-12-06T09:46:19.114Z,78.09
2022-12-06T09:47:21.063Z,77.60
2022-12-06T09:48:21.066Z,77.72
2022-12-06T09:49:21.068Z,77.93
2022-12-06T09:50:20.076Z,77.73
2022-12-06T09:51:19.067Z,77.54
2022-12-06T09:52:19.066Z,77.59
2022-12-06T09:53:19.064Z,77.67
2022-12-06T09:54:19.066Z,77.88
2022-12-06T09:55:19.208Z,77.71
2022-12-06T09:56:23.066Z,77.63
2022-12-06T09:57:18.068Z,77.59
2022-12-06T09:58:19.067Z,77.43
2022-12-06T09:59:21.067Z,77.54
2022-12-06T10:00:13.784Z,77.55
2022-12-06T10:01:19.170Z,77.44
2022-12-06T10:02:21.164Z,77.67
2022-12-06T10:03:19.205Z,77.45
2022-12-06T10:04:19.066Z,77.48
2022-12-06T10:05:19.123Z,77.67
2022-12-06T10:06:12.069Z,77.53
2022-12-06T10:07:21.069Z,77.36
2022-12-06T10:08:20.241Z,77.22
2022-12-06T10:09:19.185Z,77.50
2022-12-06T10:10:19.076Z,77.41
2022-12-06T10:11:21.067Z,77.51
2022-12-06T10:12:19.066Z,77.31
2022-12-06T10:13:21.145Z,77.48
2022-12-06T10:14:19.080Z,77.49
2022-12-06T10:15:19.069Z,77.44
2022-12-06T10:16:21.119Z,77.45
2022-12-06T10:17:18.066Z,77.59
2022-12-06T10:18:23.067Z,77.12
2022-12-06T10:19:19.070Z,77.28
2022-12-06T10:20:22.332Z,77.23
2022-12-06T10:21:19.070Z,77.33
2022-12-06T10:22:21.069Z,77.43
2022-12-06T10:23:18.071Z,77.26
2022-12-06T10:24:20.070Z,77.39
2022-12-06T10:25:19.080Z,77.36
2022-12-06T10:26:19.073Z,77.58
2022-12-06T10:27:18.068Z,77.44
2022-12-06T10:28:18.068Z,77.54
2022-12-06T10:29:21.120Z,77.25
2022-12-06T10:30:14.082Z,77.29
2022-12-06T10:31:19.114Z,77.53
2022-12-06T10:32:17.067Z,77.31
2022-12-06T10:33:20.070Z,77.32
2022-12-06T10:34:19.070Z,77.21
2022-12-06T10:35:19.067Z,77.33
2022-12-06T10:36:12.068Z,77.05
2022-12-06T10:37:19.072Z,77.04
2022-12-06T10:38:21.071Z,77.01
2022-12-06T10:39:18.069Z,76.91
2022-12-06T10:40:18.069Z,76.75
2022-12-06T10:41:19.069Z,76.59
2022-12-06T10:42:21.077Z,76.42
2022-12-06T10:43:21.070Z,76.24
2022-12-06T10:44:21.074Z,76.01
2022-12-06T10:45:24.978Z,76.04
2022-12-06T10:46:23.079Z,76.03
2022-12-06T10:47:14.118Z,76.12
2022-12-06T10:48:19.079Z,76.01
2022-12-06T10:49:23.074Z,75.58
2022-12-06T10:50:18.072Z,75.66
2022-12-06T10:51:18.074Z,75.42
2022-12-06T10:52:20.075Z,75.35
2022-12-06T10:53:16.085Z,75.05
2022-12-06T10:54:21.070Z,74.86
2022-12-06T10:55:20.071Z,74.93
2022-12-06T10:56:20.070Z,74.78
2022-12-06T10:57:17.078Z,74.79
2022-12-06T10:58:19.071Z,74.83
2022-12-06T10:59:19.073Z,74.79
2022-12-06T11:00:18.375Z,74.81
2022-12-06T11:01:17.161Z,74.88
2022-12-06T11:02:19.119Z,74.56
2022-12-06T11:03:20.076Z,74.57
2022-12-06T11:04:17.073Z,74.46
2022-12-06T11:05:21.070Z,74.48
2022-12-06T11:06:19.080Z,74.46
2022-12-06T11:07:20.071Z,74.17
2022-12-06T11:08:18.179Z,74.10
2022-12-06T11:09:21.073Z,74.15
2022-12-06T11:10:15.079Z,73.94
2022-12-06T11:11:17.078Z,74.05
2022-12-06T11:12:19.058Z,74.15
2022-12-06T11:13:20.055Z,74.31
2022-12-06T11:14:19.062Z,74.31
2022-12-06T11:15:19.065Z,74.45
2022-12-06T11:16:17.135Z,74.62
2022-12-06T11:17:16.058Z,74.50
2022-12-06T11:18:15.061Z,74.27
2022-12-06T11:19:23.069Z,73.85
2022-12-06T11:20:19.096Z,73.70
2022-12-06T11:21:23.058Z,73.50
2022-12-06T11:22:19.057Z,73.83
2022-12-06T11:23:19.063Z,73.44
2022-12-06T11:24:19.062Z,73.28
2022-12-06T11:25:21.060Z,73.20
2022-12-06T11:26:19.062Z,73.04
2022-12-06T11:27:21.055Z,73.13
2022-12-06T11:28:21.064Z,73.18
2022-12-06T11:29:14.066Z,73.41
2022-12-06T11:30:19.826Z,73.40
2022-12-06T11:31:21.169Z,73.50
2022-12-06T11:32:12.058Z,73.64
2022-12-06T11:33:11.065Z,73.56
2022-12-06T11:34:21.064Z,73.64
2022-12-06T11:35:18.177Z,73.43
2022-12-06T11:36:11.056Z,73.55
2022-12-06T11:37:19.062Z,73.64
2022-12-06T11:38:12.072Z,73.57
2022-12-06T11:39:12.061Z,73.38
2022-12-06T11:40:21.056Z,73.29
2022-12-06T11:41:12.063Z,73.38
2022-12-06T11:42:11.068Z,73.40
2022-12-06T11:43:17.058Z,72.87
2022-12-06T11:44:18.057Z,73.23
2022-12-06T11:45:20.060Z,73.35
2022-12-06T11:46:12.156Z,73.66
2022-12-06T11:47:16.073Z,73.72
2022-12-06T11:48:15.060Z,74.02
2022-12-06T11:49:23.069Z,73.92
2022-12-06T11:50:17.324Z,74.22
2022-12-06T11:51:16.063Z,74.44
2022-12-06T11:52:19.065Z,74.97
2022-12-06T11:53:19.065Z,75.43
2022-12-06T11:54:19.069Z,75.78
2022-12-06T11:55:16.063Z,76.12
2022-12-06T11:56:19.061Z,76.31
2022-12-06T11:57:22.857Z,77.10
2022-12-06T11:58:21.070Z,77.50
2022-12-06T11:59:19.064Z,77.76
2022-12-06T12:00:20.061Z,77.88
2022-12-06T12:01:12.060Z,77.93
2022-12-06T12:02:19.703Z,78.29
2022-12-06T12:03:19.134Z,78.50
2022-12-06T12:04:19.061Z,78.71
2022-12-06T12:05:21.062Z,78.94
2022-12-06T12:06:21.066Z,78.96
2022-12-06T12:07:17.063Z,79.42
2022-12-06T12:08:18.134Z,79.36
2022-12-06T12:09:19.064Z,79.09
2022-12-06T12:10:19.063Z,79.14
2022-12-06T12:11:18.081Z,79.34
2022-12-06T12:12:19.066Z,79.06
2022-12-06T12:13:22.089Z,79.11
2022-12-06T12:14:18.065Z,78.91
2022-12-06T12:15:16.059Z,78.91
2022-12-06T12:16:19.116Z,78.83
2022-12-06T12:17:23.069Z,79.07
2022-12-06T12:18:19.076Z,79.09
2022-12-06T12:19:19.064Z,79.09
2022-12-06T12:20:19.064Z,79.12
2022-12-06T12:21:11.059Z,78.78
2022-12-06T12:22:19.076Z,78.69
2022-12-06T12:23:19.065Z,78.80
2022-12-06T12:24:19.064Z,78.50
2022-12-06T12:25:19.914Z,78.54
2022-12-06T12:26:15.067Z,78.37
2022-12-06T12:27:24.401Z,78.04
2022-12-06T12:28:21.401Z,78.32
2022-12-06T12:29:16.060Z,78.27
2022-12-06T12:30:19.069Z,78.30
2022-12-06T12:31:19.106Z,78.26
2022-12-06T12:32:13.103Z,78.31
2022-12-06T12:33:14.059Z,77.94
2022-12-06T12:34:19.067Z,78.16
2022-12-06T12:35:21.067Z,77.90
2022-12-06T12:36:16.067Z,77.89
2022-12-06T12:37:19.060Z,78.12
2022-12-06T12:38:23.077Z,78.30
2022-12-06T12:39:19.072Z,78.10
2022-12-06T12:40:19.064Z,77.90
2022-12-06T12:41:21.071Z,78.13
2022-12-06T12:42:19.067Z,78.15
2022-12-06T12:43:19.066Z,77.94
2022-12-06T12:44:37.138Z,78.24
2022-12-06T12:45:20.058Z,78.13
2022-12-06T12:46:19.104Z,78.09
2022-12-06T12:47:17.067Z,78.16
2022-12-06T12:48:19.103Z,78.24
2022-12-06T12:49:19.067Z,78.38
2022-12-06T12:50:18.066Z,78.49
2022-12-06T12:51:19.065Z,78.34
2022-12-06T12:52:19.074Z,78.31
2022-12-06T12:53:19.066Z,78.39